sensor_id;sensor_type;location;lat;lon;timestamp;P1;durP1;ratioP1;P2;durP2;ratioP2
57233;SDS011;43090;52.604;13.318;2023-07-31T01:51:51;4.13;;;1.98;;
57233;SDS011;43090;52.604;13.318;2023-07-31T01:54:17;6.63;;;1.88;;
57233;SDS011;43090;52.604;13.318;2023-07-31T01:56:44;2.53;;;1.70;;
57233;SDS011;43090;52.604;13.318;2023-07-31T01:59:10;4.40;;;1.98;;
57233;SDS011;43090;52.604;13.318;2023-07-31T02:01:37;8.98;;;1.80;;
57233;SDS011;43090;52.604;13.318;2023-07-31T02:04:03;5.88;;;2.25;;
57233;SDS011;43090;52.604;13.318;2023-07-31T02:06:31;2.50;;;1.52;;
57233;SDS011;43090;52.604;13.318;2023-07-31T02:08:57;3.53;;;1.70;;
57233;SDS011;43090;52.604;13.318;2023-07-31T02:11:24;4.63;;;1.83;;
57233;SDS011;43090;52.604;13.318;2023-07-31T02:13:50;8.80;;;2.40;;
57233;SDS011;43090;52.604;13.318;2023-07-31T02:16:16;3.83;;;2.00;;
57233;SDS011;43090;52.604;13.318;2023-07-31T02:18:43;7.72;;;1.63;;
57233;SDS011;43090;52.604;13.318;2023-07-31T02:21:10;7.57;;;1.95;;
57233;SDS011;43090;52.604;13.318;2023-07-31T02:23:36;3.90;;;1.65;;
57233;SDS011;43090;52.604;13.318;2023-07-31T02:26:03;4.55;;;1.30;;
57233;SDS011;43090;52.604;13.318;2023-07-31T02:28:29;9.45;;;2.10;;
57233;SDS011;43090;52.604;13.318;2023-07-31T02:30:56;6.50;;;1.90;;
57233;SDS011;43090;52.604;13.318;2023-07-31T02:33:23;4.38;;;1.60;;
57233;SDS011;43090;52.604;13.318;2023-07-31T02:35:49;5.65;;;1.50;;
57233;SDS011;43090;52.604;13.318;2023-07-31T02:38:16;10.25;;;1.83;;
57233;SDS011;43090;52.604;13.318;2023-07-31T02:40:42;2.17;;;1.23;;
57233;SDS011;43090;52.604;13.318;2023-07-31T02:43:09;9.35;;;1.90;;
57233;SDS011;43090;52.604;13.318;2023-07-31T02:48:02;5.32;;;1.83;;
57233;SDS011;43090;52.604;13.318;2023-07-31T02:50:29;5.78;;;1.90;;
57233;SDS011;43090;52.604;13.318;2023-07-31T02:52:55;4.75;;;2.42;;
57233;SDS011;43090;52.604;13.318;2023-07-31T02:55:22;6.40;;;1.92;;
57233;SDS011;43090;52.604;13.318;2023-07-31T02:57:48;6.93;;;2.00;;
57233;SDS011;43090;52.604;13.318;2023-07-31T03:00:15;5.85;;;2.10;;
57233;SDS011;43090;52.604;13.318;2023-07-31T03:02:41;7.25;;;2.25;;
57233;SDS011;43090;52.604;13.318;2023-07-31T03:05:08;8.82;;;2.05;;
57233;SDS011;43090;52.604;13.318;2023-07-31T03:07:34;9.52;;;2.00;;
57233;SDS011;43090;52.604;13.318;2023-07-31T03:12:28;9.00;;;1.95;;
57233;SDS011;43090;52.604;13.318;2023-07-31T03:14:54;6.18;;;1.73;;
57233;SDS011;43090;52.604;13.318;2023-07-31T03:17:20;7.00;;;2.20;;
57233;SDS011;43090;52.604;13.318;2023-07-31T03:19:47;4.85;;;2.22;;
57233;SDS011;43090;52.604;13.318;2023-07-31T03:22:13;4.25;;;1.77;;
57233;SDS011;43090;52.604;13.318;2023-07-31T03:24:40;5.20;;;2.03;;
57233;SDS011;43090;52.604;13.318;2023-07-31T03:27:06;10.05;;;1.88;;
57233;SDS011;43090;52.604;13.318;2023-07-31T03:29:33;6.10;;;2.28;;
57233;SDS011;43090;52.604;13.318;2023-07-31T03:31:59;9.35;;;2.33;;
57233;SDS011;43090;52.604;13.318;2023-07-31T03:36:52;7.35;;;1.90;;
57233;SDS011;43090;52.604;13.318;2023-07-31T03:39:19;6.60;;;2.00;;
57233;SDS011;43090;52.604;13.318;2023-07-31T03:41:46;4.65;;;2.22;;
57233;SDS011;43090;52.604;13.318;2023-07-31T03:44:12;3.58;;;2.53;;
57233;SDS011;43090;52.604;13.318;2023-07-31T03:46:39;4.93;;;2.13;;
57233;SDS011;43090;52.604;13.318;2023-07-31T03:49:06;7.10;;;2.78;;
57233;SDS011;43090;52.604;13.318;2023-07-31T03:51:32;8.25;;;2.72;;
57233;SDS011;43090;52.604;13.318;2023-07-31T03:53:59;7.72;;;2.20;;
57233;SDS011;43090;52.604;13.318;2023-07-31T03:56:26;5.10;;;2.42;;
57233;SDS011;43090;52.604;13.318;2023-07-31T03:58:52;6.82;;;2.50;;
57233;SDS011;43090;52.604;13.318;2023-07-31T04:01:19;6.63;;;2.70;;
57233;SDS011;43090;52.604;13.318;2023-07-31T04:03:46;9.80;;;2.67;;
57233;SDS011;43090;52.604;13.318;2023-07-31T04:06:12;13.50;;;2.67;;
57233;SDS011;43090;52.604;13.318;2023-07-31T04:08:39;3.05;;;2.13;;
57233;SDS011;43090;52.604;13.318;2023-07-31T04:11:05;9.73;;;3.40;;
57233;SDS011;43090;52.604;13.318;2023-07-31T04:13:32;5.38;;;2.60;;
57233;SDS011;43090;52.604;13.318;2023-07-31T04:15:59;5.68;;;2.70;;
57233;SDS011;43090;52.604;13.318;2023-07-31T04:18:26;13.18;;;2.80;;
57233;SDS011;43090;52.604;13.318;2023-07-31T04:20:52;14.40;;;3.88;;
57233;SDS011;43090;52.604;13.318;2023-07-31T04:23:19;12.50;;;3.10;;
57233;SDS011;43090;52.604;13.318;2023-07-31T04:25:49;9.88;;;3.55;;
57233;SDS011;43090;52.604;13.318;2023-07-31T04:28:15;10.10;;;3.47;;
57233;SDS011;43090;52.604;13.318;2023-07-31T04:30:42;7.78;;;3.92;;
57233;SDS011;43090;52.604;13.318;2023-07-31T04:33:08;6.47;;;2.80;;
57233;SDS011;43090;52.604;13.318;2023-07-31T04:35:35;7.18;;;2.80;;
57233;SDS011;43090;52.604;13.318;2023-07-31T04:38:01;8.43;;;2.78;;
57233;SDS011;43090;52.604;13.318;2023-07-31T04:42:54;9.07;;;3.33;;
57233;SDS011;43090;52.604;13.318;2023-07-31T04:45:21;10.25;;;3.40;;
57233;SDS011;43090;52.604;13.318;2023-07-31T04:47:47;12.10;;;3.03;;
57233;SDS011;43090;52.604;13.318;2023-07-31T04:50:14;10.10;;;3.50;;
57233;SDS011;43090;52.604;13.318;2023-07-31T04:52:41;9.65;;;3.30;;
57233;SDS011;43090;52.604;13.318;2023-07-31T04:55:07;7.07;;;2.95;;
57233;SDS011;43090;52.604;13.318;2023-07-31T04:57:34;11.38;;;3.30;;
57233;SDS011;43090;52.604;13.318;2023-07-31T05:00:00;10.07;;;3.20;;
57233;SDS011;43090;52.604;13.318;2023-07-31T05:02:27;9.68;;;3.13;;
57233;SDS011;43090;52.604;13.318;2023-07-31T05:04:53;7.22;;;3.65;;
57233;SDS011;43090;52.604;13.318;2023-07-31T05:07:20;12.07;;;3.00;;
57233;SDS011;43090;52.604;13.318;2023-07-31T05:09:46;8.73;;;2.70;;
57233;SDS011;43090;52.604;13.318;2023-07-31T05:12:13;8.63;;;3.00;;
57233;SDS011;43090;52.604;13.318;2023-07-31T05:14:39;11.02;;;3.35;;
57233;SDS011;43090;52.604;13.318;2023-07-31T05:17:06;14.05;;;3.08;;
57233;SDS011;43090;52.604;13.318;2023-07-31T05:19:32;7.82;;;3.15;;
57233;SDS011;43090;52.604;13.318;2023-07-31T05:21:59;5.18;;;2.78;;
57233;SDS011;43090;52.604;13.318;2023-07-31T05:24:25;8.07;;;3.65;;
57233;SDS011;43090;52.604;13.318;2023-07-31T05:26:52;8.90;;;3.30;;
57233;SDS011;43090;52.604;13.318;2023-07-31T05:29:18;11.35;;;3.47;;
57233;SDS011;43090;52.604;13.318;2023-07-31T05:31:45;8.20;;;3.17;;
57233;SDS011;43090;52.604;13.318;2023-07-31T05:34:11;10.10;;;3.00;;
57233;SDS011;43090;52.604;13.318;2023-07-31T05:36:38;7.55;;;2.75;;
57233;SDS011;43090;52.604;13.318;2023-07-31T05:39:05;6.72;;;3.05;;
57233;SDS011;43090;52.604;13.318;2023-07-31T05:41:40;8.70;;;2.92;;
57233;SDS011;43090;52.604;13.318;2023-07-31T05:44:06;5.63;;;3.38;;
57233;SDS011;43090;52.604;13.318;2023-07-31T05:46:33;14.57;;;3.90;;
57233;SDS011;43090;52.604;13.318;2023-07-31T05:51:27;8.57;;;3.00;;
57233;SDS011;43090;52.604;13.318;2023-07-31T05:53:54;4.68;;;2.72;;
57233;SDS011;43090;52.604;13.318;2023-07-31T05:56:23;10.65;;;3.50;;
57233;SDS011;43090;52.604;13.318;2023-07-31T05:58:50;9.02;;;2.85;;
57233;SDS011;43090;52.604;13.318;2023-07-31T06:01:16;8.23;;;3.00;;
57233;SDS011;43090;52.604;13.318;2023-07-31T06:06:10;10.55;;;3.13;;
57233;SDS011;43090;52.604;13.318;2023-07-31T06:08:37;7.75;;;3.33;;
57233;SDS011;43090;52.604;13.318;2023-07-31T06:11:03;8.57;;;3.20;;
57233;SDS011;43090;52.604;13.318;2023-07-31T06:13:30;6.80;;;3.20;;
57233;SDS011;43090;52.604;13.318;2023-07-31T06:15:56;8.43;;;2.92;;
57233;SDS011;43090;52.604;13.318;2023-07-31T06:18:23;7.85;;;2.88;;
57233;SDS011;43090;52.604;13.318;2023-07-31T06:20:49;7.90;;;3.33;;
57233;SDS011;43090;52.604;13.318;2023-07-31T06:23:20;6.50;;;2.97;;
57233;SDS011;43090;52.604;13.318;2023-07-31T06:25:46;9.60;;;3.22;;
57233;SDS011;43090;52.604;13.318;2023-07-31T06:28:13;6.30;;;3.05;;
57233;SDS011;43090;52.604;13.318;2023-07-31T06:30:40;7.95;;;2.75;;
57233;SDS011;43090;52.604;13.318;2023-07-31T06:35:33;6.00;;;2.78;;
57233;SDS011;43090;52.604;13.318;2023-07-31T06:38:00;7.95;;;2.55;;
57233;SDS011;43090;52.604;13.318;2023-07-31T06:40:28;6.00;;;2.72;;
57233;SDS011;43090;52.604;13.318;2023-07-31T06:42:54;9.32;;;2.92;;
57233;SDS011;43090;52.604;13.318;2023-07-31T06:45:21;8.95;;;2.95;;
57233;SDS011;43090;52.604;13.318;2023-07-31T06:47:48;7.53;;;3.38;;
57233;SDS011;43090;52.604;13.318;2023-07-31T06:50:15;8.43;;;3.03;;
57233;SDS011;43090;52.604;13.318;2023-07-31T06:52:41;5.18;;;2.80;;
57233;SDS011;43090;52.604;13.318;2023-07-31T06:55:18;9.32;;;3.10;;
57233;SDS011;43090;52.604;13.318;2023-07-31T06:57:46;15.65;;;3.08;;
57233;SDS011;43090;52.604;13.318;2023-07-31T07:00:14;5.97;;;2.65;;
57233;SDS011;43090;52.604;13.318;2023-07-31T07:02:41;6.13;;;2.22;;
57233;SDS011;43090;52.604;13.318;2023-07-31T07:07:34;9.13;;;3.65;;
57233;SDS011;43090;52.604;13.318;2023-07-31T07:10:01;4.43;;;2.40;;
57233;SDS011;43090;52.604;13.318;2023-07-31T07:12:29;7.68;;;2.53;;
57233;SDS011;43090;52.604;13.318;2023-07-31T07:14:57;8.23;;;2.50;;
57233;SDS011;43090;52.604;13.318;2023-07-31T07:19:51;6.10;;;2.25;;
57233;SDS011;43090;52.604;13.318;2023-07-31T07:24:44;6.97;;;2.20;;
57233;SDS011;43090;52.604;13.318;2023-07-31T07:27:11;7.32;;;2.58;;
57233;SDS011;43090;52.604;13.318;2023-07-31T07:29:37;4.47;;;2.70;;
57233;SDS011;43090;52.604;13.318;2023-07-31T07:34:33;6.57;;;3.15;;
57233;SDS011;43090;52.604;13.318;2023-07-31T07:37:00;6.95;;;2.22;;
57233;SDS011;43090;52.604;13.318;2023-07-31T07:39:27;4.25;;;2.42;;
57233;SDS011;43090;52.604;13.318;2023-07-31T07:41:53;5.80;;;2.40;;
57233;SDS011;43090;52.604;13.318;2023-07-31T07:46:46;6.30;;;2.20;;
57233;SDS011;43090;52.604;13.318;2023-07-31T07:49:13;5.53;;;2.55;;
57233;SDS011;43090;52.604;13.318;2023-07-31T07:51:39;4.90;;;2.63;;
57233;SDS011;43090;52.604;13.318;2023-07-31T07:54:06;6.05;;;2.28;;
57233;SDS011;43090;52.604;13.318;2023-07-31T07:56:33;10.00;;;2.13;;
57233;SDS011;43090;52.604;13.318;2023-07-31T07:59:00;7.43;;;2.90;;
57233;SDS011;43090;52.604;13.318;2023-07-31T08:01:26;5.05;;;2.47;;
57233;SDS011;43090;52.604;13.318;2023-07-31T08:03:53;5.25;;;2.40;;
57233;SDS011;43090;52.604;13.318;2023-07-31T08:06:19;7.18;;;2.55;;
57233;SDS011;43090;52.604;13.318;2023-07-31T08:08:46;7.90;;;2.50;;
57233;SDS011;43090;52.604;13.318;2023-07-31T08:11:12;4.15;;;2.20;;
57233;SDS011;43090;52.604;13.318;2023-07-31T08:13:39;8.95;;;1.98;;
57233;SDS011;43090;52.604;13.318;2023-07-31T08:16:05;5.20;;;2.40;;
57233;SDS011;43090;52.604;13.318;2023-07-31T08:20:59;5.13;;;2.38;;
57233;SDS011;43090;52.604;13.318;2023-07-31T08:23:27;7.25;;;2.28;;
57233;SDS011;43090;52.604;13.318;2023-07-31T08:25:53;6.10;;;2.50;;
57233;SDS011;43090;52.604;13.318;2023-07-31T08:28:20;3.90;;;2.00;;
57233;SDS011;43090;52.604;13.318;2023-07-31T08:30:47;5.13;;;2.20;;
57233;SDS011;43090;52.604;13.318;2023-07-31T08:33:13;7.68;;;2.85;;
57233;SDS011;43090;52.604;13.318;2023-07-31T08:35:40;7.53;;;2.30;;
57233;SDS011;43090;52.604;13.318;2023-07-31T08:38:06;4.38;;;1.90;;
57233;SDS011;43090;52.604;13.318;2023-07-31T08:40:35;5.00;;;1.75;;
57233;SDS011;43090;52.604;13.318;2023-07-31T08:43:03;4.28;;;2.15;;
57233;SDS011;43090;52.604;13.318;2023-07-31T08:45:30;4.57;;;2.10;;
57233;SDS011;43090;52.604;13.318;2023-07-31T08:50:23;5.32;;;2.08;;
57233;SDS011;43090;52.604;13.318;2023-07-31T08:52:50;3.30;;;2.17;;
57233;SDS011;43090;52.604;13.318;2023-07-31T08:55:18;4.28;;;1.73;;
57233;SDS011;43090;52.604;13.318;2023-07-31T08:57:53;6.32;;;1.52;;
57233;SDS011;43090;52.604;13.318;2023-07-31T09:00:22;4.18;;;1.60;;
57233;SDS011;43090;52.604;13.318;2023-07-31T09:03:03;6.03;;;1.90;;
57233;SDS011;43090;52.604;13.318;2023-07-31T09:05:35;9.38;;;2.45;;
57233;SDS011;43090;52.604;13.318;2023-07-31T09:08:06;4.82;;;1.92;;
57233;SDS011;43090;52.604;13.318;2023-07-31T09:10:35;2.97;;;1.63;;
57233;SDS011;43090;52.604;13.318;2023-07-31T09:13:01;5.47;;;1.60;;
57233;SDS011;43090;52.604;13.318;2023-07-31T09:15:29;5.43;;;1.75;;
57233;SDS011;43090;52.604;13.318;2023-07-31T09:18:04;4.65;;;1.85;;
57233;SDS011;43090;52.604;13.318;2023-07-31T09:20:31;4.10;;;1.65;;
57233;SDS011;43090;52.604;13.318;2023-07-31T09:23:12;3.03;;;1.48;;
57233;SDS011;43090;52.604;13.318;2023-07-31T09:25:43;2.80;;;1.42;;
57233;SDS011;43090;52.604;13.318;2023-07-31T09:28:10;5.20;;;1.67;;
57233;SDS011;43090;52.604;13.318;2023-07-31T09:30:45;2.10;;;1.40;;
57233;SDS011;43090;52.604;13.318;2023-07-31T09:33:18;5.25;;;1.52;;
57233;SDS011;43090;52.604;13.318;2023-07-31T09:35:46;2.13;;;1.48;;
57233;SDS011;43090;52.604;13.318;2023-07-31T09:38:14;2.25;;;1.58;;
57233;SDS011;43090;52.604;13.318;2023-07-31T09:43:17;3.72;;;1.48;;
57233;SDS011;43090;52.604;13.318;2023-07-31T09:45:45;1.67;;;1.00;;
57233;SDS011;43090;52.604;13.318;2023-07-31T09:48:14;3.10;;;1.30;;
57233;SDS011;43090;52.604;13.318;2023-07-31T09:50:46;3.65;;;1.23;;
57233;SDS011;43090;52.604;13.318;2023-07-31T09:53:15;3.70;;;1.20;;
57233;SDS011;43090;52.604;13.318;2023-07-31T09:55:42;4.47;;;1.48;;
57233;SDS011;43090;52.604;13.318;2023-07-31T09:58:10;2.72;;;1.38;;
57233;SDS011;43090;52.604;13.318;2023-07-31T10:00:37;3.60;;;1.50;;
57233;SDS011;43090;52.604;13.318;2023-07-31T10:03:05;2.78;;;1.40;;
57233;SDS011;43090;52.604;13.318;2023-07-31T10:05:34;2.97;;;1.50;;
57233;SDS011;43090;52.604;13.318;2023-07-31T10:08:17;5.72;;;1.70;;
57233;SDS011;43090;52.604;13.318;2023-07-31T10:10:46;3.85;;;1.48;;
57233;SDS011;43090;52.604;13.318;2023-07-31T10:15:40;2.70;;;1.63;;
57233;SDS011;43090;52.604;13.318;2023-07-31T10:18:08;6.60;;;1.75;;
57233;SDS011;43090;52.604;13.318;2023-07-31T10:20:35;5.30;;;1.90;;
57233;SDS011;43090;52.604;13.318;2023-07-31T10:23:03;4.60;;;1.88;;
57233;SDS011;43090;52.604;13.318;2023-07-31T10:25:30;4.07;;;1.67;;
57233;SDS011;43090;52.604;13.318;2023-07-31T10:27:58;3.67;;;2.08;;
57233;SDS011;43090;52.604;13.318;2023-07-31T10:30:26;3.85;;;2.30;;
57233;SDS011;43090;52.604;13.318;2023-07-31T10:32:55;7.63;;;3.30;;
57233;SDS011;43090;52.604;13.318;2023-07-31T10:35:23;4.65;;;2.55;;
57233;SDS011;43090;52.604;13.318;2023-07-31T10:37:51;8.88;;;2.78;;
57233;SDS011;43090;52.604;13.318;2023-07-31T10:40:19;5.00;;;3.25;;
57233;SDS011;43090;52.604;13.318;2023-07-31T10:42:50;6.30;;;3.22;;
57233;SDS011;43090;52.604;13.318;2023-07-31T10:48:16;6.63;;;3.17;;
57233;SDS011;43090;52.604;13.318;2023-07-31T10:50:50;9.45;;;3.92;;
57233;SDS011;43090;52.604;13.318;2023-07-31T10:53:22;8.98;;;3.60;;
57233;SDS011;43090;52.604;13.318;2023-07-31T10:55:53;9.75;;;3.45;;
57233;SDS011;43090;52.604;13.318;2023-07-31T10:58:24;8.52;;;3.88;;
57233;SDS011;43090;52.604;13.318;2023-07-31T11:00:54;13.52;;;4.95;;
57233;SDS011;43090;52.604;13.318;2023-07-31T11:03:25;10.60;;;3.78;;
57233;SDS011;43090;52.604;13.318;2023-07-31T11:05:59;7.53;;;3.80;;
57233;SDS011;43090;52.604;13.318;2023-07-31T11:08:30;8.75;;;3.55;;
57233;SDS011;43090;52.604;13.318;2023-07-31T11:13:31;7.43;;;3.60;;
57233;SDS011;43090;52.604;13.318;2023-07-31T11:16:00;6.20;;;2.92;;
57233;SDS011;43090;52.604;13.318;2023-07-31T11:18:27;8.80;;;3.20;;
57233;SDS011;43090;52.604;13.318;2023-07-31T11:23:21;11.02;;;3.20;;
57233;SDS011;43090;52.604;13.318;2023-07-31T11:25:48;10.20;;;3.75;;
57233;SDS011;43090;52.604;13.318;2023-07-31T11:28:16;10.73;;;3.55;;
57233;SDS011;43090;52.604;13.318;2023-07-31T11:30:45;11.95;;;3.40;;
57233;SDS011;43090;52.604;13.318;2023-07-31T11:33:13;9.82;;;4.15;;
57233;SDS011;43090;52.604;13.318;2023-07-31T11:35:47;8.27;;;3.90;;
57233;SDS011;43090;52.604;13.318;2023-07-31T11:38:26;10.43;;;3.40;;
57233;SDS011;43090;52.604;13.318;2023-07-31T11:40:57;10.63;;;3.95;;
57233;SDS011;43090;52.604;13.318;2023-07-31T11:43:25;14.18;;;4.32;;
57233;SDS011;43090;52.604;13.318;2023-07-31T11:45:55;8.65;;;3.25;;
57233;SDS011;43090;52.604;13.318;2023-07-31T11:48:27;17.35;;;4.22;;
57233;SDS011;43090;52.604;13.318;2023-07-31T11:50:59;8.38;;;3.60;;
57233;SDS011;43090;52.604;13.318;2023-07-31T11:53:38;8.90;;;3.97;;
57233;SDS011;43090;52.604;13.318;2023-07-31T11:56:18;8.35;;;3.33;;
57233;SDS011;43090;52.604;13.318;2023-07-31T11:58:46;8.35;;;3.97;;
57233;SDS011;43090;52.604;13.318;2023-07-31T12:01:15;9.23;;;3.35;;
57233;SDS011;43090;52.604;13.318;2023-07-31T12:03:46;8.68;;;3.67;;
57233;SDS011;43090;52.604;13.318;2023-07-31T12:06:13;6.13;;;3.08;;
57233;SDS011;43090;52.604;13.318;2023-07-31T12:08:39;7.15;;;3.88;;
57233;SDS011;43090;52.604;13.318;2023-07-31T12:11:07;10.07;;;3.88;;
57233;SDS011;43090;52.604;13.318;2023-07-31T12:13:35;10.60;;;3.58;;
57233;SDS011;43090;52.604;13.318;2023-07-31T12:16:03;8.50;;;4.03;;
57233;SDS011;43090;52.604;13.318;2023-07-31T12:18:34;9.23;;;4.10;;
57233;SDS011;43090;52.604;13.318;2023-07-31T12:21:04;8.15;;;3.67;;
57233;SDS011;43090;52.604;13.318;2023-07-31T12:23:33;8.30;;;4.32;;
57233;SDS011;43090;52.604;13.318;2023-07-31T12:26:10;7.88;;;3.90;;
57233;SDS011;43090;52.604;13.318;2023-07-31T12:28:49;10.43;;;4.15;;
57233;SDS011;43090;52.604;13.318;2023-07-31T12:31:17;7.90;;;3.63;;
57233;SDS011;43090;52.604;13.318;2023-07-31T12:33:50;11.43;;;4.22;;
57233;SDS011;43090;52.604;13.318;2023-07-31T12:36:21;10.63;;;3.78;;
57233;SDS011;43090;52.604;13.318;2023-07-31T12:38:50;9.68;;;3.50;;
57233;SDS011;43090;52.604;13.318;2023-07-31T12:41:18;9.25;;;3.97;;
57233;SDS011;43090;52.604;13.318;2023-07-31T12:46:11;6.05;;;3.05;;
57233;SDS011;43090;52.604;13.318;2023-07-31T12:48:38;10.55;;;4.28;;
57233;SDS011;43090;52.604;13.318;2023-07-31T12:51:05;9.88;;;4.50;;
57233;SDS011;43090;52.604;13.318;2023-07-31T12:53:35;7.32;;;3.80;;
57233;SDS011;43090;52.604;13.318;2023-07-31T12:56:02;8.38;;;3.85;;
57233;SDS011;43090;52.604;13.318;2023-07-31T12:58:30;10.82;;;4.30;;
57233;SDS011;43090;52.604;13.318;2023-07-31T13:03:23;6.60;;;3.78;;
57233;SDS011;43090;52.604;13.318;2023-07-31T13:08:16;10.88;;;4.32;;
57233;SDS011;43090;52.604;13.318;2023-07-31T13:10:44;8.63;;;3.50;;
57233;SDS011;43090;52.604;13.318;2023-07-31T13:13:10;9.90;;;4.20;;
57233;SDS011;43090;52.604;13.318;2023-07-31T13:18:06;7.97;;;3.47;;
57233;SDS011;43090;52.604;13.318;2023-07-31T13:20:33;8.13;;;3.47;;
57233;SDS011;43090;52.604;13.318;2023-07-31T13:23:06;5.85;;;3.10;;
57233;SDS011;43090;52.604;13.318;2023-07-31T13:25:33;7.53;;;3.95;;
57233;SDS011;43090;52.604;13.318;2023-07-31T13:28:00;10.55;;;4.97;;
57233;SDS011;43090;52.604;13.318;2023-07-31T13:30:29;6.68;;;3.45;;
57233;SDS011;43090;52.604;13.318;2023-07-31T13:32:56;10.25;;;3.08;;
57233;SDS011;43090;52.604;13.318;2023-07-31T13:37:49;8.88;;;3.30;;
57233;SDS011;43090;52.604;13.318;2023-07-31T13:40:17;5.60;;;2.90;;
57233;SDS011;43090;52.604;13.318;2023-07-31T13:42:43;11.20;;;3.03;;
57233;SDS011;43090;52.604;13.318;2023-07-31T13:45:10;11.93;;;3.20;;
57233;SDS011;43090;52.604;13.318;2023-07-31T13:47:36;6.43;;;3.03;;
57233;SDS011;43090;52.604;13.318;2023-07-31T13:50:04;8.18;;;3.25;;
57233;SDS011;43090;52.604;13.318;2023-07-31T13:52:30;9.32;;;3.35;;
57233;SDS011;43090;52.604;13.318;2023-07-31T13:54:57;5.68;;;2.65;;
57233;SDS011;43090;52.604;13.318;2023-07-31T13:57:37;7.78;;;3.30;;
57233;SDS011;43090;52.604;13.318;2023-07-31T14:00:04;4.05;;;2.72;;
57233;SDS011;43090;52.604;13.318;2023-07-31T14:02:31;5.90;;;3.00;;
57233;SDS011;43090;52.604;13.318;2023-07-31T14:07:24;6.25;;;2.55;;
57233;SDS011;43090;52.604;13.318;2023-07-31T14:12:17;6.00;;;3.13;;
57233;SDS011;43090;52.604;13.318;2023-07-31T14:15:04;8.02;;;3.80;;
57233;SDS011;43090;52.604;13.318;2023-07-31T14:21:18;7.00;;;3.15;;
57233;SDS011;43090;52.604;13.318;2023-07-31T14:23:45;10.70;;;3.58;;
57233;SDS011;43090;52.604;13.318;2023-07-31T14:26:12;8.15;;;3.47;;
57233;SDS011;43090;52.604;13.318;2023-07-31T14:31:08;7.25;;;3.10;;
57233;SDS011;43090;52.604;13.318;2023-07-31T14:33:34;8.45;;;3.13;;
57233;SDS011;43090;52.604;13.318;2023-07-31T14:38:28;6.28;;;3.20;;
57233;SDS011;43090;52.604;13.318;2023-07-31T14:40:55;13.45;;;3.58;;
57233;SDS011;43090;52.604;13.318;2023-07-31T14:43:22;13.18;;;3.47;;
57233;SDS011;43090;52.604;13.318;2023-07-31T14:48:21;5.35;;;2.75;;
57233;SDS011;43090;52.604;13.318;2023-07-31T14:50:48;7.78;;;3.63;;
57233;SDS011;43090;52.604;13.318;2023-07-31T14:53:14;11.27;;;3.47;;
57233;SDS011;43090;52.604;13.318;2023-07-31T14:55:42;8.00;;;4.00;;
57233;SDS011;43090;52.604;13.318;2023-07-31T14:58:11;10.48;;;3.88;;
57233;SDS011;43090;52.604;13.318;2023-07-31T15:00:41;6.00;;;2.88;;
57233;SDS011;43090;52.604;13.318;2023-07-31T15:03:09;6.75;;;3.38;;
57233;SDS011;43090;52.604;13.318;2023-07-31T15:08:02;9.50;;;2.65;;
57233;SDS011;43090;52.604;13.318;2023-07-31T15:10:32;7.05;;;3.03;;
57233;SDS011;43090;52.604;13.318;2023-07-31T15:12:58;6.05;;;2.88;;
57233;SDS011;43090;52.604;13.318;2023-07-31T15:15:28;5.10;;;2.60;;
57233;SDS011;43090;52.604;13.318;2023-07-31T15:17:55;7.00;;;3.00;;
57233;SDS011;43090;52.604;13.318;2023-07-31T15:20:22;7.03;;;3.10;;
57233;SDS011;43090;52.604;13.318;2023-07-31T15:22:49;4.30;;;2.85;;
57233;SDS011;43090;52.604;13.318;2023-07-31T15:25:15;14.90;;;2.90;;
57233;SDS011;43090;52.604;13.318;2023-07-31T15:27:42;9.13;;;3.30;;
57233;SDS011;43090;52.604;13.318;2023-07-31T15:30:09;7.68;;;2.88;;
57233;SDS011;43090;52.604;13.318;2023-07-31T15:32:36;6.32;;;3.00;;
57233;SDS011;43090;52.604;13.318;2023-07-31T15:35:06;6.20;;;2.95;;
57233;SDS011;43090;52.604;13.318;2023-07-31T15:37:33;7.10;;;2.65;;
57233;SDS011;43090;52.604;13.318;2023-07-31T15:40:00;8.38;;;3.83;;
57233;SDS011;43090;52.604;13.318;2023-07-31T15:42:29;7.38;;;2.90;;
57233;SDS011;43090;52.604;13.318;2023-07-31T15:49:49;6.03;;;2.90;;
57233;SDS011;43090;52.604;13.318;2023-07-31T16:03:33;6.82;;;3.05;;
57233;SDS011;43090;52.604;13.318;2023-07-31T16:06:00;7.72;;;2.63;;
57233;SDS011;43090;52.604;13.318;2023-07-31T16:08:32;5.55;;;3.40;;
57233;SDS011;43090;52.604;13.318;2023-07-31T16:11:03;5.40;;;2.72;;
57233;SDS011;43090;52.604;13.318;2023-07-31T16:21:04;7.55;;;3.17;;
57233;SDS011;43090;52.604;13.318;2023-07-31T16:23:35;3.85;;;2.47;;
57233;SDS011;43090;52.604;13.318;2023-07-31T16:26:01;8.45;;;3.50;;
57233;SDS011;43090;52.604;13.318;2023-07-31T16:28:29;9.68;;;3.65;;
57233;SDS011;43090;52.604;13.318;2023-07-31T16:30:56;8.65;;;3.38;;
57233;SDS011;43090;52.604;13.318;2023-07-31T16:33:25;11.48;;;4.03;;
57233;SDS011;43090;52.604;13.318;2023-07-31T16:42:51;7.88;;;2.95;;
57233;SDS011;43090;52.604;13.318;2023-07-31T16:45:19;6.65;;;3.35;;
57233;SDS011;43090;52.604;13.318;2023-07-31T16:50:13;6.07;;;3.08;;
57233;SDS011;43090;52.604;13.318;2023-07-31T17:07:32;7.78;;;2.80;;
57233;SDS011;43090;52.604;13.318;2023-07-31T17:10:05;13.82;;;2.90;;
57233;SDS011;43090;52.604;13.318;2023-07-31T17:12:41;5.90;;;2.80;;
57233;SDS011;43090;52.604;13.318;2023-07-31T17:15:08;8.60;;;2.90;;
57233;SDS011;43090;52.604;13.318;2023-07-31T17:17:35;7.85;;;2.90;;
57233;SDS011;43090;52.604;13.318;2023-07-31T17:22:29;4.35;;;2.38;;
57233;SDS011;43090;52.604;13.318;2023-07-31T17:25:27;6.82;;;2.60;;
57233;SDS011;43090;52.604;13.318;2023-07-31T17:28:02;10.75;;;3.50;;
57233;SDS011;43090;52.604;13.318;2023-07-31T17:30:30;6.43;;;2.30;;
57233;SDS011;43090;52.604;13.318;2023-07-31T17:32:59;4.50;;;2.30;;
57233;SDS011;43090;52.604;13.318;2023-07-31T17:35:40;4.28;;;2.55;;
57233;SDS011;43090;52.604;13.318;2023-07-31T17:38:07;4.90;;;2.72;;
57233;SDS011;43090;52.604;13.318;2023-07-31T17:40:34;7.07;;;2.67;;
57233;SDS011;43090;52.604;13.318;2023-07-31T17:43:00;7.25;;;2.60;;
57233;SDS011;43090;52.604;13.318;2023-07-31T17:45:40;6.80;;;2.83;;
57233;SDS011;43090;52.604;13.318;2023-07-31T17:50:37;5.80;;;1.90;;
57233;SDS011;43090;52.604;13.318;2023-07-31T17:53:06;4.63;;;2.50;;
57233;SDS011;43090;52.604;13.318;2023-07-31T17:55:35;5.38;;;2.60;;
57233;SDS011;43090;52.604;13.318;2023-07-31T17:58:07;7.18;;;2.30;;
57233;SDS011;43090;52.604;13.318;2023-07-31T18:00:35;5.07;;;2.30;;
57233;SDS011;43090;52.604;13.318;2023-07-31T18:03:11;4.15;;;2.20;;
57233;SDS011;43090;52.604;13.318;2023-07-31T18:05:39;4.40;;;2.38;;
57233;SDS011;43090;52.604;13.318;2023-07-31T18:11:04;8.18;;;3.00;;
57233;SDS011;43090;52.604;13.318;2023-07-31T18:13:34;4.18;;;2.22;;
57233;SDS011;43090;52.604;13.318;2023-07-31T18:18:33;5.03;;;2.30;;
57233;SDS011;43090;52.604;13.318;2023-07-31T18:34:38;6.47;;;2.80;;
57233;SDS011;43090;52.604;13.318;2023-07-31T18:37:07;3.63;;;2.25;;
57233;SDS011;43090;52.604;13.318;2023-07-31T18:39:40;5.55;;;2.28;;
57233;SDS011;43090;52.604;13.318;2023-07-31T18:42:10;6.45;;;2.60;;
57233;SDS011;43090;52.604;13.318;2023-07-31T18:47:13;5.90;;;2.50;;
57233;SDS011;43090;52.604;13.318;2023-07-31T18:49:40;5.53;;;2.25;;
57233;SDS011;43090;52.604;13.318;2023-07-31T18:52:07;7.43;;;1.95;;
